sensor_id;sensor_type;location;lat;lon;timestamp;pressure;altitude;pressure_sealevel;temperature;humidity
71109;BME280;59614;51.012;-1.648;2023-05-19T00:01:05;101834.72;;;13.64;82.38
71109;BME280;59614;51.012;-1.648;2023-05-19T00:03:32;101828.53;;;13.67;82.66
71109;BME280;59614;51.012;-1.648;2023-05-19T00:06:00;101831.16;;;13.68;82.75
71109;BME280;59614;51.012;-1.648;2023-05-19T00:08:29;101829.31;;;13.77;82.35
71109;BME280;59614;51.012;-1.648;2023-05-19T00:10:56;101829.38;;;13.70;82.75
71109;BME280;59614;51.012;-1.648;2023-05-19T00:13:22;101824.06;;;13.73;81.13
71109;BME280;59614;51.012;-1.648;2023-05-19T00:15:49;101827.63;;;13.66;80.61
71109;BME280;59614;51.012;-1.648;2023-05-19T00:18:15;101819.66;;;13.69;80.86
71109;BME280;59614;51.012;-1.648;2023-05-19T00:20:41;101834.84;;;13.49;81.42
71109;BME280;59614;51.012;-1.648;2023-05-19T00:23:07;101832.09;;;13.61;81.40
71109;BME280;59614;51.012;-1.648;2023-05-19T00:25:33;101831.06;;;13.81;81.40
71109;BME280;59614;51.012;-1.648;2023-05-19T00:27:58;101827.91;;;13.10;83.59
71109;BME280;59614;51.012;-1.648;2023-05-19T00:30:24;101828.72;;;13.26;84.31
71109;BME280;59614;51.012;-1.648;2023-05-19T00:32:50;101826.88;;;13.46;84.23
71109;BME280;59614;51.012;-1.648;2023-05-19T00:35:15;101823.25;;;13.62;83.24
71109;BME280;59614;51.012;-1.648;2023-05-19T00:37:41;101831.31;;;13.43;82.96
71109;BME280;59614;51.012;-1.648;2023-05-19T00:40:08;101829.47;;;13.55;83.13
71109;BME280;59614;51.012;-1.648;2023-05-19T00:42:34;101836.53;;;13.56;82.56
71109;BME280;59614;51.012;-1.648;2023-05-19T00:45:00;101840.13;;;13.49;82.34
71109;BME280;59614;51.012;-1.648;2023-05-19T00:47:25;101833.16;;;13.26;84.29
71109;BME280;59614;51.012;-1.648;2023-05-19T00:49:50;101834.84;;;13.49;83.11
71109;BME280;59614;51.012;-1.648;2023-05-19T00:52:16;101833.84;;;13.61;81.67
71109;BME280;59614;51.012;-1.648;2023-05-19T00:54:43;101837.47;;;13.47;83.27
71109;BME280;59614;51.012;-1.648;2023-05-19T00:57:09;101833.00;;;13.60;82.47
71109;BME280;59614;51.012;-1.648;2023-05-19T00:59:35;101833.06;;;13.51;82.36
71109;BME280;59614;51.012;-1.648;2023-05-19T01:02:01;101830.44;;;13.41;82.30
71109;BME280;59614;51.012;-1.648;2023-05-19T01:04:26;101824.31;;;13.27;83.54
71109;BME280;59614;51.012;-1.648;2023-05-19T01:06:54;101826.09;;;13.20;83.21
71109;BME280;59614;51.012;-1.648;2023-05-19T01:09:21;101825.25;;;13.07;83.90
71109;BME280;59614;51.012;-1.648;2023-05-19T01:11:47;101822.59;;;13.15;84.09
71109;BME280;59614;51.012;-1.648;2023-05-19T01:14:13;101819.94;;;13.13;84.36
71109;BME280;59614;51.012;-1.648;2023-05-19T01:16:42;101810.19;;;13.25;83.51
71109;BME280;59614;51.012;-1.648;2023-05-19T01:22:21;101814.56;;;13.24;82.91
71109;BME280;59614;51.012;-1.648;2023-05-19T01:30:45;101813.81;;;13.02;83.63
71109;BME280;59614;51.012;-1.648;2023-05-19T01:33:13;101813.88;;;12.87;84.41
71109;BME280;59614;51.012;-1.648;2023-05-19T01:35:39;101822.63;;;13.03;84.13
71109;BME280;59614;51.012;-1.648;2023-05-19T01:38:08;101822.66;;;13.04;84.13
71109;BME280;59614;51.012;-1.648;2023-05-19T01:40:34;101821.69;;;13.16;83.74
71109;BME280;59614;51.012;-1.648;2023-05-19T01:43:01;101830.56;;;13.10;83.48
71109;BME280;59614;51.012;-1.648;2023-05-19T01:45:28;101831.50;;;12.89;84.07
71109;BME280;59614;51.012;-1.648;2023-05-19T01:47:56;101827.09;;;12.93;83.72
71109;BME280;59614;51.012;-1.648;2023-05-19T01:50:22;101820.00;;;12.95;84.04
71109;BME280;59614;51.012;-1.648;2023-05-19T01:52:48;101814.72;;;12.93;84.08
71109;BME280;59614;51.012;-1.648;2023-05-19T01:55:13;101828.00;;;12.78;84.62
71109;BME280;59614;51.012;-1.648;2023-05-19T01:58:20;101825.31;;;12.90;84.95
71109;BME280;59614;51.012;-1.648;2023-05-19T02:11:36;101820.16;;;12.61;86.60
71109;BME280;59614;51.012;-1.648;2023-05-19T02:14:08;101822.75;;;12.75;85.78
71109;BME280;59614;51.012;-1.648;2023-05-19T02:16:37;101822.78;;;12.70;85.35
71109;BME280;59614;51.012;-1.648;2023-05-19T02:19:03;101828.06;;;12.70;85.11
71109;BME280;59614;51.012;-1.648;2023-05-19T02:21:28;101818.28;;;12.86;84.19
71109;BME280;59614;51.012;-1.648;2023-05-19T02:23:54;101814.75;;;12.84;84.33
71109;BME280;59614;51.012;-1.648;2023-05-19T02:26:19;101812.13;;;12.73;84.94
71109;BME280;59614;51.012;-1.648;2023-05-19T02:28:45;101813.97;;;12.40;86.14
71109;BME280;59614;51.012;-1.648;2023-05-19T02:31:10;101805.19;;;12.43;86.12
71109;BME280;59614;51.012;-1.648;2023-05-19T02:33:36;101808.66;;;12.56;86.01
71109;BME280;59614;51.012;-1.648;2023-05-19T02:36:01;101801.63;;;12.45;86.01
71109;BME280;59614;51.012;-1.648;2023-05-19T02:38:27;101803.38;;;12.52;86.10
71109;BME280;59614;51.012;-1.648;2023-05-19T02:40:52;101798.09;;;12.46;86.58
71109;BME280;59614;51.012;-1.648;2023-05-19T02:43:18;101796.31;;;12.50;86.33
71109;BME280;59614;51.012;-1.648;2023-05-19T02:45:44;101795.47;;;12.39;86.44
71109;BME280;59614;51.012;-1.648;2023-05-19T02:48:09;101797.25;;;12.27;86.82
71109;BME280;59614;51.012;-1.648;2023-05-19T02:50:35;101815.78;;;11.92;89.44
71109;BME280;59614;51.012;-1.648;2023-05-19T02:53:01;101826.31;;;11.76;90.18
71109;BME280;59614;51.012;-1.648;2023-05-19T02:55:27;101821.94;;;11.86;90.67
71109;BME280;59614;51.012;-1.648;2023-05-19T02:57:52;101824.63;;;12.15;88.75
71109;BME280;59614;51.012;-1.648;2023-05-19T03:00:17;101817.53;;;12.25;87.90
71109;BME280;59614;51.012;-1.648;2023-05-19T03:02:43;101823.72;;;12.18;88.06
71109;BME280;59614;51.012;-1.648;2023-05-19T03:05:09;101823.72;;;12.26;87.63
71109;BME280;59614;51.012;-1.648;2023-05-19T03:07:35;101818.44;;;12.27;87.49
71109;BME280;59614;51.012;-1.648;2023-05-19T03:10:00;101813.13;;;12.27;87.68
71109;BME280;59614;51.012;-1.648;2023-05-19T03:12:31;101808.72;;;12.25;87.57
71109;BME280;59614;51.012;-1.648;2023-05-19T03:14:56;101808.72;;;12.22;87.17
71109;BME280;59614;51.012;-1.648;2023-05-19T03:17:22;101815.78;;;12.16;87.62
71109;BME280;59614;51.012;-1.648;2023-05-19T03:19:47;101818.44;;;12.19;87.38
71109;BME280;59614;51.012;-1.648;2023-05-19T03:22:12;101814.03;;;12.09;87.28
71109;BME280;59614;51.012;-1.648;2023-05-19T03:24:38;101812.25;;;12.05;87.34
71109;BME280;59614;51.012;-1.648;2023-05-19T03:27:03;101809.59;;;11.97;87.49
71109;BME280;59614;51.012;-1.648;2023-05-19T03:29:31;101799.94;;;12.01;87.73
71109;BME280;59614;51.012;-1.648;2023-05-19T03:31:57;101801.66;;;12.00;87.90
71109;BME280;59614;51.012;-1.648;2023-05-19T03:34:23;101808.75;;;12.03;87.76
71109;BME280;59614;51.012;-1.648;2023-05-19T03:36:49;101798.16;;;12.09;87.57
71109;BME280;59614;51.012;-1.648;2023-05-19T03:39:15;101796.38;;;12.08;87.58
71109;BME280;59614;51.012;-1.648;2023-05-19T03:41:41;101807.88;;;12.01;87.86
71109;BME280;59614;51.012;-1.648;2023-05-19T03:44:06;101799.88;;;11.95;88.64
71109;BME280;59614;51.012;-1.648;2023-05-19T03:46:32;101804.34;;;12.07;88.19
71109;BME280;59614;51.012;-1.648;2023-05-19T03:48:57;101806.09;;;12.00;88.07
71109;BME280;59614;51.012;-1.648;2023-05-19T03:51:22;101802.56;;;12.09;88.22
71109;BME280;59614;51.012;-1.648;2023-05-19T03:53:48;101799.03;;;12.10;88.32
71109;BME280;59614;51.012;-1.648;2023-05-19T03:56:13;101802.56;;;12.13;88.65
71109;BME280;59614;51.012;-1.648;2023-05-19T03:58:41;101792.00;;;12.09;88.11
71109;BME280;59614;51.012;-1.648;2023-05-19T04:01:09;101801.69;;;12.11;88.02
71109;BME280;59614;51.012;-1.648;2023-05-19T04:03:35;101813.16;;;12.02;87.85
71109;BME280;59614;51.012;-1.648;2023-05-19T04:06:00;101813.13;;;11.99;88.55
71109;BME280;59614;51.012;-1.648;2023-05-19T04:08:26;101816.69;;;11.98;88.40
71109;BME280;59614;51.012;-1.648;2023-05-19T04:10:51;101809.56;;;11.69;89.65
71109;BME280;59614;51.012;-1.648;2023-05-19T04:13:17;101798.97;;;11.46;91.33
71109;BME280;59614;51.012;-1.648;2023-05-19T04:15:42;101800.75;;;11.69;91.57
71109;BME280;59614;51.012;-1.648;2023-05-19T04:18:08;101804.28;;;11.83;90.01
71109;BME280;59614;51.012;-1.648;2023-05-19T04:20:33;101780.47;;;11.74;90.44
71109;BME280;59614;51.012;-1.648;2023-05-19T04:22:58;101787.41;;;11.05;92.19
71109;BME280;59614;51.012;-1.648;2023-05-19T04:25:24;101775.91;;;10.89;93.61
71109;BME280;59614;51.012;-1.648;2023-05-19T04:27:49;101781.19;;;10.94;93.67
71109;BME280;59614;51.012;-1.648;2023-05-19T04:30:17;101806.88;;;11.43;91.78
71109;BME280;59614;51.012;-1.648;2023-05-19T04:32:47;101813.94;;;11.53;90.21
71109;BME280;59614;51.012;-1.648;2023-05-19T04:35:14;101798.03;;;11.32;90.81
71109;BME280;59614;51.012;-1.648;2023-05-19T04:37:42;101804.28;;;11.58;91.67
71109;BME280;59614;51.012;-1.648;2023-05-19T04:40:11;101793.69;;;11.66;91.10
71109;BME280;59614;51.012;-1.648;2023-05-19T04:42:36;101791.88;;;11.39;90.52
71109;BME280;59614;51.012;-1.648;2023-05-19T04:45:06;101789.19;;;11.11;92.10
71109;BME280;59614;51.012;-1.648;2023-05-19T04:47:33;101785.63;;;11.10;93.00
71109;BME280;59614;51.012;-1.648;2023-05-19T04:50:01;101780.25;;;10.78;95.04
71109;BME280;59614;51.012;-1.648;2023-05-19T04:52:26;101788.97;;;10.61;95.52
71109;BME280;59614;51.012;-1.648;2023-05-19T04:54:53;101799.69;;;10.95;94.82
71109;BME280;59614;51.012;-1.648;2023-05-19T04:57:18;101790.84;;;10.89;92.96
71109;BME280;59614;51.012;-1.648;2023-05-19T04:59:44;101796.13;;;10.87;94.44
71109;BME280;59614;51.012;-1.648;2023-05-19T05:02:10;101797.94;;;11.01;94.27
71109;BME280;59614;51.012;-1.648;2023-05-19T05:04:36;101804.09;;;10.98;94.82
71109;BME280;59614;51.012;-1.648;2023-05-19T05:07:01;101807.75;;;11.33;93.50
71109;BME280;59614;51.012;-1.648;2023-05-19T05:09:27;101792.75;;;11.32;93.41
71109;BME280;59614;51.012;-1.648;2023-05-19T05:11:52;101794.50;;;11.26;93.97
71109;BME280;59614;51.012;-1.648;2023-05-19T05:14:18;101798.09;;;11.56;92.70
71109;BME280;59614;51.012;-1.648;2023-05-19T05:16:44;101806.97;;;12.05;91.60
71109;BME280;59614;51.012;-1.648;2023-05-19T05:19:10;101806.94;;;12.33;89.11
71109;BME280;59614;51.012;-1.648;2023-05-19T05:21:36;101821.03;;;12.57;87.65
71109;BME280;59614;51.012;-1.648;2023-05-19T05:24:02;101814.84;;;12.47;87.83
71109;BME280;59614;51.012;-1.648;2023-05-19T05:26:29;101815.72;;;12.69;85.92
71109;BME280;59614;51.012;-1.648;2023-05-19T05:28:57;101808.59;;;12.77;86.62
71109;BME280;59614;51.012;-1.648;2023-05-19T05:31:22;101816.44;;;13.10;86.58
71109;BME280;59614;51.012;-1.648;2023-05-19T05:33:48;101814.53;;;13.38;85.70
71109;BME280;59614;51.012;-1.648;2023-05-19T05:36:13;101807.47;;;13.42;85.17
71109;BME280;59614;51.012;-1.648;2023-05-19T05:38:39;101807.47;;;13.31;84.67
71109;BME280;59614;51.012;-1.648;2023-05-19T05:41:04;101802.16;;;13.31;85.53
71109;BME280;59614;51.012;-1.648;2023-05-19T05:43:30;101815.47;;;13.22;85.56
71109;BME280;59614;51.012;-1.648;2023-05-19T05:45:56;101810.22;;;13.17;86.33
71109;BME280;59614;51.012;-1.648;2023-05-19T05:48:22;101807.56;;;13.16;87.35
71109;BME280;59614;51.012;-1.648;2023-05-19T05:50:48;101798.59;;;13.44;86.31
71109;BME280;59614;51.012;-1.648;2023-05-19T05:53:18;101799.41;;;13.59;85.28
71109;BME280;59614;51.012;-1.648;2023-05-19T05:55:45;101801.94;;;13.76;85.61
71109;BME280;59614;51.012;-1.648;2023-05-19T05:58:11;101796.28;;;14.13;84.74
71109;BME280;59614;51.012;-1.648;2023-05-19T06:00:39;101786.53;;;14.17;83.75
71109;BME280;59614;51.012;-1.648;2023-05-19T06:03:07;101784.59;;;14.31;82.08
71109;BME280;59614;51.012;-1.648;2023-05-19T06:05:34;101779.25;;;14.38;82.54
71109;BME280;59614;51.012;-1.648;2023-05-19T06:08:00;101781.16;;;14.23;80.49
71109;BME280;59614;51.012;-1.648;2023-05-19T06:10:27;101785.47;;;14.33;81.49
71109;BME280;59614;51.012;-1.648;2023-05-19T06:12:52;101786.59;;;14.12;81.13
71109;BME280;59614;51.012;-1.648;2023-05-19T06:15:18;101790.97;;;14.18;82.82
71109;BME280;59614;51.012;-1.648;2023-05-19T06:17:43;101790.03;;;14.19;82.26
71109;BME280;59614;51.012;-1.648;2023-05-19T06:20:09;101790.03;;;14.19;82.31
71109;BME280;59614;51.012;-1.648;2023-05-19T06:22:35;101791.56;;;14.45;83.55
71109;BME280;59614;51.012;-1.648;2023-05-19T06:25:01;101787.78;;;14.64;83.02
71109;BME280;59614;51.012;-1.648;2023-05-19T06:27:27;101783.50;;;14.52;82.32
71109;BME280;59614;51.012;-1.648;2023-05-19T06:29:53;101796.69;;;14.63;82.15
71109;BME280;59614;51.012;-1.648;2023-05-19T06:32:18;101785.09;;;14.74;82.53
71109;BME280;59614;51.012;-1.648;2023-05-19T06:34:44;101772.59;;;14.80;82.75
71109;BME280;59614;51.012;-1.648;2023-05-19T06:37:09;101769.81;;;14.88;82.29
71109;BME280;59614;51.012;-1.648;2023-05-19T06:39:36;101784.59;;;15.11;79.75
71109;BME280;59614;51.012;-1.648;2023-05-19T06:42:02;101798.78;;;15.11;79.59
71109;BME280;59614;51.012;-1.648;2023-05-19T06:44:28;101809.88;;;14.74;79.16
71109;BME280;59614;51.012;-1.648;2023-05-19T06:46:53;101807.25;;;14.73;79.28
71109;BME280;59614;51.012;-1.648;2023-05-19T06:49:18;101802.03;;;14.59;80.90
71109;BME280;59614;51.012;-1.648;2023-05-19T06:51:44;101804.31;;;14.94;80.36
71109;BME280;59614;51.012;-1.648;2023-05-19T06:54:10;101802.06;;;15.29;79.18
71109;BME280;59614;51.012;-1.648;2023-05-19T06:56:37;101815.34;;;15.32;78.58
71109;BME280;59614;51.012;-1.648;2023-05-19T06:59:02;101813.22;;;15.56;78.28
71109;BME280;59614;51.012;-1.648;2023-05-19T07:01:28;101811.19;;;15.73;78.23
71109;BME280;59614;51.012;-1.648;2023-05-19T07:03:54;101808.50;;;15.75;76.24
71109;BME280;59614;51.012;-1.648;2023-05-19T07:06:19;101811.06;;;15.81;76.33
71109;BME280;59614;51.012;-1.648;2023-05-19T07:08:45;101814.28;;;16.02;75.08
71109;BME280;59614;51.012;-1.648;2023-05-19T07:11:10;101811.28;;;16.22;74.12
71109;BME280;59614;51.012;-1.648;2023-05-19T07:13:36;101805.75;;;16.33;74.39
71109;BME280;59614;51.012;-1.648;2023-05-19T07:16:02;101803.94;;;16.35;73.29
71109;BME280;59614;51.012;-1.648;2023-05-19T07:18:27;101797.63;;;16.42;73.79
71109;BME280;59614;51.012;-1.648;2023-05-19T07:20:55;101797.88;;;16.75;72.86
71109;BME280;59614;51.012;-1.648;2023-05-19T07:23:21;101796.28;;;17.10;71.09
71109;BME280;59614;51.012;-1.648;2023-05-19T07:25:47;101791.06;;;17.04;70.78
71109;BME280;59614;51.012;-1.648;2023-05-19T07:28:12;101791.38;;;16.89;70.85
71109;BME280;59614;51.012;-1.648;2023-05-19T07:30:37;101790.19;;;17.04;70.80
71109;BME280;59614;51.012;-1.648;2023-05-19T07:33:03;101784.19;;;16.91;70.19
71109;BME280;59614;51.012;-1.648;2023-05-19T07:35:28;101783.38;;;16.87;70.75
71109;BME280;59614;51.012;-1.648;2023-05-19T07:37:54;101801.03;;;17.74;69.96
71109;BME280;59614;51.012;-1.648;2023-05-19T07:40:19;101793.03;;;17.74;67.70
71109;BME280;59614;51.012;-1.648;2023-05-19T07:42:47;101791.38;;;18.40;68.91
71109;BME280;59614;51.012;-1.648;2023-05-19T07:45:13;101786.34;;;19.22;65.24
71109;BME280;59614;51.012;-1.648;2023-05-19T07:47:38;101793.69;;;19.45;62.48
71109;BME280;59614;51.012;-1.648;2023-05-19T07:50:04;101791.63;;;19.25;61.99
71109;BME280;59614;51.012;-1.648;2023-05-19T07:52:30;101793.22;;;18.69;63.84
71109;BME280;59614;51.012;-1.648;2023-05-19T07:54:58;101799.13;;;18.50;65.41
71109;BME280;59614;51.012;-1.648;2023-05-19T07:57:23;101802.50;;;18.57;65.91
71109;BME280;59614;51.012;-1.648;2023-05-19T07:59:49;101801.31;;;18.67;65.09
71109;BME280;59614;51.012;-1.648;2023-05-19T08:02:14;101805.69;;;18.04;65.17
71109;BME280;59614;51.012;-1.648;2023-05-19T08:04:40;101800.59;;;17.91;66.79
71109;BME280;59614;51.012;-1.648;2023-05-19T08:07:05;101801.03;;;17.74;67.88
71109;BME280;59614;51.012;-1.648;2023-05-19T08:09:31;101804.78;;;18.03;66.87
71109;BME280;59614;51.012;-1.648;2023-05-19T08:11:56;101802.47;;;18.24;67.11
71109;BME280;59614;51.012;-1.648;2023-05-19T08:14:22;101801.97;;;18.10;66.21
71109;BME280;59614;51.012;-1.648;2023-05-19T08:16:48;101809.88;;;18.13;67.76
71109;BME280;59614;51.012;-1.648;2023-05-19T08:19:14;101806.31;;;18.14;65.01
71109;BME280;59614;51.012;-1.648;2023-05-19T08:21:39;101798.13;;;17.84;65.54
71109;BME280;59614;51.012;-1.648;2023-05-19T08:24:06;101806.06;;;16.64;71.18
71109;BME280;59614;51.012;-1.648;2023-05-19T08:26:32;101802.84;;;18.43;69.94
71109;BME280;59614;51.012;-1.648;2023-05-19T08:28:58;101806.41;;;18.75;63.75
71109;BME280;59614;51.012;-1.648;2023-05-19T08:31:23;101799.09;;;18.82;63.48
71109;BME280;59614;51.012;-1.648;2023-05-19T08:33:49;101791.78;;;19.49;64.46
71109;BME280;59614;51.012;-1.648;2023-05-19T08:36:15;101791.38;;;20.40;63.21
71109;BME280;59614;51.012;-1.648;2023-05-19T08:38:41;101793.59;;;20.54;60.87
71109;BME280;59614;51.012;-1.648;2023-05-19T08:41:06;101789.50;;;21.39;60.77
71109;BME280;59614;51.012;-1.648;2023-05-19T08:43:32;101793.44;;;21.06;57.00
71109;BME280;59614;51.012;-1.648;2023-05-19T08:45:58;101801.50;;;20.57;58.32
71109;BME280;59614;51.012;-1.648;2023-05-19T08:48:27;101803.91;;;20.65;58.96
71109;BME280;59614;51.012;-1.648;2023-05-19T08:53:36;101795.19;;;21.07;56.46
71109;BME280;59614;51.012;-1.648;2023-05-19T08:56:08;101799.16;;;19.97;62.57
71109;BME280;59614;51.012;-1.648;2023-05-19T08:58:37;101792.75;;;20.27;62.87
71109;BME280;59614;51.012;-1.648;2023-05-19T09:01:05;101802.28;;;20.10;63.81
71109;BME280;59614;51.012;-1.648;2023-05-19T09:03:32;101794.00;;;20.16;60.98
71109;BME280;59614;51.012;-1.648;2023-05-19T09:06:06;101794.34;;;19.80;61.20
71109;BME280;59614;51.012;-1.648;2023-05-19T09:08:42;101796.16;;;20.06;61.75
71109;BME280;59614;51.012;-1.648;2023-05-19T09:11:08;101790.44;;;21.16;59.30
71109;BME280;59614;51.012;-1.648;2023-05-19T09:13:33;101787.41;;;21.01;59.71
71109;BME280;59614;51.012;-1.648;2023-05-19T09:15:59;101786.88;;;21.37;56.85
71109;BME280;59614;51.012;-1.648;2023-05-19T09:18:25;101778.97;;;21.10;59.06
71109;BME280;59614;51.012;-1.648;2023-05-19T09:20:55;101784.56;;;20.57;60.01
71109;BME280;59614;51.012;-1.648;2023-05-19T09:23:26;101780.34;;;20.75;62.16
71109;BME280;59614;51.012;-1.648;2023-05-19T09:25:53;101779.94;;;20.86;63.13
71109;BME280;59614;51.012;-1.648;2023-05-19T09:28:30;101777.75;;;19.96;64.07
71109;BME280;59614;51.012;-1.648;2023-05-19T09:33:29;101762.28;;;21.26;60.29
71109;BME280;59614;51.012;-1.648;2023-05-19T09:35:55;101772.78;;;20.10;61.66
71109;BME280;59614;51.012;-1.648;2023-05-19T09:38:23;101760.25;;;20.61;62.75
71109;BME280;59614;51.012;-1.648;2023-05-19T09:40:48;101751.00;;;20.94;58.43
71109;BME280;59614;51.012;-1.648;2023-05-19T09:43:15;101761.97;;;20.13;62.38
71109;BME280;59614;51.012;-1.648;2023-05-19T09:45:41;101755.88;;;20.08;62.95
71109;BME280;59614;51.012;-1.648;2023-05-19T09:48:06;101758.63;;;21.05;62.79
71109;BME280;59614;51.012;-1.648;2023-05-19T09:50:32;101749.91;;;21.22;60.79
71109;BME280;59614;51.012;-1.648;2023-05-19T09:52:58;101746.41;;;21.64;58.01
71109;BME280;59614;51.012;-1.648;2023-05-19T09:55:25;101739.13;;;22.50;58.42
71109;BME280;59614;51.012;-1.648;2023-05-19T09:57:54;101739.16;;;23.08;55.34
71109;BME280;59614;51.012;-1.648;2023-05-19T10:00:25;101741.34;;;21.99;60.08
71109;BME280;59614;51.012;-1.648;2023-05-19T10:02:51;101746.63;;;22.63;55.33
71109;BME280;59614;51.012;-1.648;2023-05-19T10:05:18;101750.63;;;23.67;53.41
71109;BME280;59614;51.012;-1.648;2023-05-19T10:07:51;101754.56;;;22.25;57.93
71109;BME280;59614;51.012;-1.648;2023-05-19T10:10:19;101762.78;;;23.94;54.74
71109;BME280;59614;51.012;-1.648;2023-05-19T10:12:46;101754.03;;;22.77;53.79
71109;BME280;59614;51.012;-1.648;2023-05-19T10:15:16;101746.50;;;22.85;56.56
71109;BME280;59614;51.012;-1.648;2023-05-19T10:17:43;101757.38;;;23.94;55.19
71109;BME280;59614;51.012;-1.648;2023-05-19T10:20:13;101752.41;;;24.88;49.75
71109;BME280;59614;51.012;-1.648;2023-05-19T10:22:40;101747.09;;;25.03;51.22
71109;BME280;59614;51.012;-1.648;2023-05-19T10:25:06;101746.72;;;25.25;49.70
71109;BME280;59614;51.012;-1.648;2023-05-19T10:27:35;101757.31;;;24.13;50.57
71109;BME280;59614;51.012;-1.648;2023-05-19T10:30:06;101750.91;;;22.48;52.92
71109;BME280;59614;51.012;-1.648;2023-05-19T10:32:34;101745.78;;;22.42;51.60
71109;BME280;59614;51.012;-1.648;2023-05-19T10:37:45;101745.47;;;22.88;53.69
71109;BME280;59614;51.012;-1.648;2023-05-19T10:40:26;101743.09;;;22.00;54.38
71109;BME280;59614;51.012;-1.648;2023-05-19T10:43:04;101749.19;;;21.63;53.61
71109;BME280;59614;51.012;-1.648;2023-05-19T10:45:35;101745.50;;;22.48;52.25
71109;BME280;59614;51.012;-1.648;2023-05-19T10:48:10;101748.25;;;21.18;55.73
71109;BME280;59614;51.012;-1.648;2023-05-19T10:50:37;101737.19;;;21.92;54.70
71109;BME280;59614;51.012;-1.648;2023-05-19T10:53:03;101740.34;;;21.14;55.51
71109;BME280;59614;51.012;-1.648;2023-05-19T10:55:55;101735.28;;;21.07;55.31
71109;BME280;59614;51.012;-1.648;2023-05-19T10:58:47;101731.91;;;20.78;54.32
71109;BME280;59614;51.012;-1.648;2023-05-19T11:01:15;101730.75;;;20.61;54.94
71109;BME280;59614;51.012;-1.648;2023-05-19T11:03:53;101733.00;;;20.23;54.35
71109;BME280;59614;51.012;-1.648;2023-05-19T11:09:00;101727.47;;;19.77;57.17
71109;BME280;59614;51.012;-1.648;2023-05-19T11:11:43;101730.03;;;19.80;56.45
71109;BME280;59614;51.012;-1.648;2023-05-19T11:14:10;101730.03;;;19.53;58.40
71109;BME280;59614;51.012;-1.648;2023-05-19T11:16:37;101726.41;;;19.27;60.59
71109;BME280;59614;51.012;-1.648;2023-05-19T11:19:05;101721.25;;;19.21;59.76
71109;BME280;59614;51.012;-1.648;2023-05-19T11:21:52;101716.28;;;19.09;60.35
71109;BME280;59614;51.012;-1.648;2023-05-19T11:24:44;101718.56;;;19.21;60.52
71109;BME280;59614;51.012;-1.648;2023-05-19T11:27:33;101718.03;;;19.10;60.13
71109;BME280;59614;51.012;-1.648;2023-05-19T11:30:09;101725.31;;;19.05;61.04
71109;BME280;59614;51.012;-1.648;2023-05-19T11:32:38;101720.56;;;19.14;60.58
71109;BME280;59614;51.012;-1.648;2023-05-19T11:35:07;101714.81;;;18.98;61.73
71109;BME280;59614;51.012;-1.648;2023-05-19T11:37:34;101716.59;;;19.00;61.56
71109;BME280;59614;51.012;-1.648;2023-05-19T11:40:04;101716.84;;;18.90;63.45
71109;BME280;59614;51.012;-1.648;2023-05-19T11:42:33;101711.56;;;18.87;63.36
71109;BME280;59614;51.012;-1.648;2023-05-19T11:44:59;101707.22;;;18.83;64.45
71109;BME280;59614;51.012;-1.648;2023-05-19T11:47:26;101707.38;;;18.78;64.70
71109;BME280;59614;51.012;-1.648;2023-05-19T11:49:53;101704.03;;;19.02;64.76
71109;BME280;59614;51.012;-1.648;2023-05-19T11:52:24;101702.56;;;19.20;63.36
71109;BME280;59614;51.012;-1.648;2023-05-19T11:54:50;101704.59;;;19.40;62.90
71109;BME280;59614;51.012;-1.648;2023-05-19T11:57:15;101699.44;;;19.34;61.68
71109;BME280;59614;51.012;-1.648;2023-05-19T11:59:41;101698.69;;;19.30;62.26
71109;BME280;59614;51.012;-1.648;2023-05-19T12:02:19;101703.34;;;19.50;60.29
71109;BME280;59614;51.012;-1.648;2023-05-19T12:04:47;101686.13;;;19.84;59.54
71109;BME280;59614;51.012;-1.648;2023-05-19T12:07:23;101692.25;;;19.89;57.85
71109;BME280;59614;51.012;-1.648;2023-05-19T12:09:50;101672.84;;;20.32;57.77
71109;BME280;59614;51.012;-1.648;2023-05-19T12:12:17;101681.59;;;20.37;56.45
71109;BME280;59614;51.012;-1.648;2023-05-19T12:14:43;101677.28;;;20.80;56.07
71109;BME280;59614;51.012;-1.648;2023-05-19T12:17:11;101675.22;;;21.32;55.43
71109;BME280;59614;51.012;-1.648;2023-05-19T12:19:38;101667.75;;;21.60;53.86
71109;BME280;59614;51.012;-1.648;2023-05-19T12:22:05;101668.06;;;21.53;52.62
71109;BME280;59614;51.012;-1.648;2023-05-19T12:24:32;101668.72;;;21.37;54.49
71109;BME280;59614;51.012;-1.648;2023-05-19T12:27:13;101675.28;;;20.62;54.25
71109;BME280;59614;51.012;-1.648;2023-05-19T12:29:41;101669.03;;;20.61;55.87
71109;BME280;59614;51.012;-1.648;2023-05-19T12:32:07;101673.34;;;21.11;54.38
71109;BME280;59614;51.012;-1.648;2023-05-19T12:34:37;101670.94;;;20.10;56.44
71109;BME280;59614;51.012;-1.648;2023-05-19T12:37:03;101675.88;;;20.46;56.73
71109;BME280;59614;51.012;-1.648;2023-05-19T12:39:29;101674.22;;;19.68;60.13
71109;BME280;59614;51.012;-1.648;2023-05-19T12:42:21;101663.03;;;20.31;57.08
71109;BME280;59614;51.012;-1.648;2023-05-19T12:44:50;101661.13;;;20.82;56.64
71109;BME280;59614;51.012;-1.648;2023-05-19T12:47:18;101661.97;;;20.11;57.72
71109;BME280;59614;51.012;-1.648;2023-05-19T12:50:03;101675.06;;;19.95;60.82
71109;BME280;59614;51.012;-1.648;2023-05-19T12:52:31;101665.53;;;20.12;59.70
71109;BME280;59614;51.012;-1.648;2023-05-19T12:55:06;101669.91;;;20.38;56.70
71109;BME280;59614;51.012;-1.648;2023-05-19T12:57:34;101675.97;;;20.19;56.53
71109;BME280;59614;51.012;-1.648;2023-05-19T13:00:01;101675.28;;;20.38;56.81
71109;BME280;59614;51.012;-1.648;2023-05-19T13:02:27;101669.94;;;20.13;59.39
71109;BME280;59614;51.012;-1.648;2023-05-19T13:04:52;101680.88;;;19.29;61.67
71109;BME280;59614;51.012;-1.648;2023-05-19T13:07:19;101682.25;;;19.68;60.58
71109;BME280;59614;51.012;-1.648;2023-05-19T13:09:44;101680.56;;;19.38;62.91
71109;BME280;59614;51.012;-1.648;2023-05-19T13:12:10;101668.84;;;19.68;62.92